createdAt,value
2019-05-03T00:02:17.293Z,58.80
2019-05-03T00:04:48.675Z,58.80
2019-05-03T00:07:18.197Z,59.00
2019-05-03T00:09:48.592Z,59.10
2019-05-03T00:12:18.214Z,59.20
2019-05-03T00:14:49.438Z,59.30
2019-05-03T00:17:18.992Z,59.30
2019-05-03T00:19:48.656Z,59.30
2019-05-03T00:22:18.198Z,59.40
2019-05-03T00:24:47.735Z,60.60
2019-05-03T00:27:17.955Z,60.00
2019-05-03T00:29:47.570Z,60.00
2019-05-03T00:32:17.018Z,60.10
2019-05-03T00:34:48.219Z,60.10
2019-05-03T00:37:25.225Z,60.40
2019-05-03T00:39:56.415Z,60.40
2019-05-03T00:42:25.978Z,60.60
2019-05-03T00:44:55.608Z,60.60
2019-05-03T00:47:25.220Z,61.30
2019-05-03T00:49:54.720Z,62.80
2019-05-03T00:52:24.268Z,64.10
2019-05-03T00:54:53.870Z,64.90
2019-05-03T00:57:23.351Z,65.90
2019-05-03T00:59:52.945Z,66.30
2019-05-03T01:02:22.530Z,67.20
2019-05-03T01:04:51.953Z,66.60
2019-05-03T01:07:22.264Z,65.80
2019-05-03T01:09:53.123Z,65.70
2019-05-03T01:12:22.792Z,66.20
2019-05-03T01:14:53.997Z,66.60
2019-05-03T01:17:23.542Z,68.00
2019-05-03T01:19:53.017Z,69.20
2019-05-03T01:22:22.751Z,70.30
2019-05-03T01:24:52.403Z,70.60
2019-05-03T01:27:22.112Z,71.00
2019-05-03T01:29:52.090Z,70.60
2019-05-03T01:32:22.264Z,71.10
2019-05-03T01:34:52.425Z,70.90
2019-05-03T01:37:22.692Z,71.90
2019-05-03T01:39:52.783Z,72.30
2019-05-03T01:42:22.747Z,72.00
2019-05-03T01:44:52.597Z,72.30
2019-05-03T01:47:29.536Z,72.70
2019-05-03T01:50:09.530Z,73.00
2019-05-03T01:52:41.963Z,73.20
2019-05-03T01:55:15.772Z,72.60
2019-05-03T01:57:42.957Z,72.10
2019-05-03T02:00:14.820Z,73.60
2019-05-03T02:02:52.479Z,73.80
2019-05-03T02:05:40.243Z,74.10
2019-05-03T02:08:12.572Z,73.80
2019-05-03T02:10:43.734Z,73.90
2019-05-03T02:13:13.464Z,73.60
2019-05-03T02:15:44.163Z,73.60
2019-05-03T02:18:15.137Z,73.80
2019-05-03T02:20:45.907Z,74.00
2019-05-03T02:23:16.699Z,74.40
2019-05-03T02:25:56.061Z,74.40
2019-05-03T02:28:18.291Z,74.20
2019-05-03T02:30:47.791Z,74.00
2019-05-03T02:33:17.349Z,74.60
2019-05-03T02:35:46.930Z,74.60
2019-05-03T02:38:16.462Z,74.20
2019-05-03T02:40:46.024Z,74.50
2019-05-03T02:43:29.440Z,74.50
2019-05-03T02:46:12.479Z,75.30
2019-05-03T02:48:45.691Z,75.00
2019-05-03T02:51:15.705Z,74.90
2019-05-03T02:53:45.881Z,74.50
2019-05-03T02:56:22.238Z,75.10
2019-05-03T02:58:46.964Z,75.50
2019-05-03T03:01:17.313Z,75.70
2019-05-03T03:03:47.065Z,75.60
2019-05-03T03:06:19.522Z,76.00
2019-05-03T03:08:51.007Z,75.80
2019-05-03T03:11:21.882Z,76.00
2019-05-03T03:13:55.255Z,76.30
2019-05-03T03:16:27.398Z,76.40
2019-05-03T03:18:58.341Z,76.50
2019-05-03T03:21:32.033Z,76.50
2019-05-03T03:24:10.505Z,76.80
2019-05-03T03:26:43.218Z,76.70
2019-05-03T03:29:16.145Z,76.50
2019-05-03T03:32:17.484Z,76.50
2019-05-03T03:34:55.625Z,76.40
2019-05-03T03:37:22.357Z,76.70
2019-05-03T03:39:52.135Z,76.00
2019-05-03T03:42:25.004Z,75.50
2019-05-03T03:44:56.284Z,75.90
2019-05-03T03:47:27.613Z,75.90
2019-05-03T03:49:58.906Z,76.10
2019-05-03T03:52:30.179Z,75.80
2019-05-03T03:55:02.261Z,75.90
2019-05-03T03:57:36.782Z,75.90
2019-05-03T04:00:08.123Z,76.00
2019-05-03T04:02:39.634Z,76.10
2019-05-03T04:05:09.828Z,75.70
2019-05-03T04:07:39.561Z,75.70
2019-05-03T04:10:11.253Z,76.30
2019-05-03T04:12:45.305Z,76.50
2019-05-03T04:15:28.229Z,76.70
2019-05-03T04:17:59.828Z,76.70
2019-05-03T04:20:31.123Z,76.70
2019-05-03T04:23:00.708Z,76.80
2019-05-03T04:25:30.343Z,76.80
2019-05-03T04:28:00.183Z,77.10
2019-05-03T04:30:29.841Z,76.30
2019-05-03T04:32:59.487Z,76.40
2019-05-03T04:35:29.038Z,76.30
2019-05-03T04:37:58.683Z,76.30
2019-05-03T04:40:28.201Z,76.10
2019-05-03T04:42:57.806Z,76.40
2019-05-03T04:45:27.491Z,76.70
2019-05-03T04:47:56.982Z,76.70
2019-05-03T04:50:26.690Z,76.40
2019-05-03T04:52:56.832Z,76.30
2019-05-03T04:55:26.922Z,76.00
2019-05-03T04:57:56.665Z,76.30
2019-05-03T05:00:26.371Z,76.30
2019-05-03T05:02:56.038Z,76.30
2019-05-03T05:05:26.279Z,76.40
2019-05-03T05:07:56.039Z,76.40
2019-05-03T05:10:26.326Z,76.50
2019-05-03T05:12:55.988Z,76.40
2019-05-03T05:15:26.564Z,76.70
2019-05-03T05:18:01.150Z,76.70
2019-05-03T05:20:35.159Z,76.70
2019-05-03T05:23:05.032Z,76.90
2019-05-03T05:25:36.371Z,76.60
2019-05-03T05:28:15.047Z,76.30
2019-05-03T05:30:46.332Z,76.40
2019-05-03T05:33:22.008Z,76.00
2019-05-03T05:35:52.059Z,76.10
2019-05-03T05:38:21.693Z,76.10
2019-05-03T05:40:51.174Z,75.70
2019-05-03T05:43:20.698Z,75.50
2019-05-03T05:45:50.341Z,74.50
2019-05-03T05:48:27.317Z,74.10
2019-05-03T05:50:56.796Z,72.50
2019-05-03T05:53:27.600Z,72.00
2019-05-03T05:56:15.798Z,71.30
2019-05-03T05:58:50.185Z,71.10
2019-05-03T06:01:25.000Z,71.00
2019-05-03T06:03:55.129Z,70.80
2019-05-03T06:06:36.778Z,70.40
2019-05-03T06:09:11.918Z,70.20
2019-05-03T06:11:45.251Z,69.60
2019-05-03T06:14:16.294Z,69.20
2019-05-03T06:16:56.588Z,70.90
2019-05-03T06:19:27.739Z,70.70
2019-05-03T06:21:59.845Z,70.90
2019-05-03T06:24:31.020Z,71.20
2019-05-03T06:27:02.161Z,72.30
2019-05-03T06:29:31.766Z,71.90
2019-05-03T06:32:02.912Z,70.60
2019-05-03T06:34:32.339Z,71.30
2019-05-03T06:37:12.436Z,70.40
2019-05-03T06:39:41.974Z,70.70
2019-05-03T06:42:17.541Z,70.40
2019-05-03T06:44:42.680Z,70.30
2019-05-03T06:47:12.293Z,70.30
2019-05-03T06:49:44.983Z,70.00
2019-05-03T06:52:14.650Z,69.60
2019-05-03T06:54:44.877Z,69.30
2019-05-03T06:57:16.572Z,69.80
2019-05-03T06:59:55.026Z,69.50
2019-05-03T07:02:29.368Z,70.10
2019-05-03T07:05:05.111Z,68.60
2019-05-03T07:07:45.360Z,69.30
2019-05-03T07:10:28.388Z,69.30
2019-05-03T07:12:57.863Z,69.50
2019-05-03T07:15:27.932Z,69.40
2019-05-03T07:18:05.806Z,68.90
2019-05-03T07:20:44.612Z,68.60
2019-05-03T07:23:15.580Z,68.50
2019-05-03T07:25:45.392Z,69.20
2019-05-03T07:28:15.126Z,69.40
2019-05-03T07:30:45.705Z,68.70
2019-05-03T07:33:31.868Z,67.90
2019-05-03T07:36:01.364Z,68.30
2019-05-03T07:38:30.920Z,68.20
2019-05-03T07:41:00.376Z,68.40
2019-05-03T07:43:30.040Z,68.50
2019-05-03T07:45:59.530Z,68.60
2019-05-03T07:48:29.108Z,68.50
2019-05-03T07:50:59.645Z,68.70
2019-05-03T07:53:29.024Z,69.20
2019-05-03T07:56:06.098Z,69.30
2019-05-03T07:58:37.661Z,69.10
2019-05-03T08:01:09.906Z,68.40
2019-05-03T08:03:39.897Z,68.30
2019-05-03T08:06:09.461Z,68.10
2019-05-03T08:08:38.973Z,67.90
2019-05-03T08:11:08.516Z,68.80
2019-05-03T08:13:37.998Z,68.40
2019-05-03T08:16:07.551Z,68.40
2019-05-03T08:18:37.159Z,69.20
2019-05-03T08:21:07.732Z,69.30
2019-05-03T08:23:37.281Z,69.00
2019-05-03T08:26:06.827Z,69.50
2019-05-03T08:28:36.415Z,70.70
2019-05-03T08:31:26.487Z,70.40
2019-05-03T08:34:06.289Z,69.70
2019-05-03T08:36:37.428Z,69.90
2019-05-03T08:39:07.458Z,69.30
2019-05-03T08:41:38.718Z,69.20
2019-05-03T08:44:08.281Z,69.40
2019-05-03T08:46:37.885Z,69.90
2019-05-03T08:49:07.435Z,70.30
2019-05-03T08:51:37.006Z,69.60
2019-05-03T08:54:11.467Z,69.40
2019-05-03T08:56:41.266Z,68.60
2019-05-03T08:59:10.858Z,68.40
2019-05-03T09:01:40.481Z,69.40
2019-05-03T09:04:10.015Z,68.40
2019-05-03T09:06:39.761Z,68.50
2019-05-03T09:09:17.152Z,68.10
2019-05-03T09:11:46.772Z,68.50
2019-05-03T09:14:19.225Z,68.20
2019-05-03T09:16:48.933Z,67.40
2019-05-03T09:19:19.719Z,67.60
2019-05-03T09:21:49.309Z,67.80
2019-05-03T09:24:18.949Z,67.60
2019-05-03T09:26:48.642Z,68.00
2019-05-03T09:29:18.396Z,67.30
2019-05-03T09:31:48.154Z,68.90
2019-05-03T09:34:17.724Z,68.10
2019-05-03T09:36:47.218Z,66.80
2019-05-03T09:39:16.824Z,67.00
2019-05-03T09:41:46.360Z,67.10
2019-05-03T09:44:15.911Z,67.80
2019-05-03T09:46:45.324Z,67.20
2019-05-03T09:49:16.562Z,68.10
2019-05-03T09:51:46.103Z,67.50
2019-05-03T09:54:24.959Z,67.70
2019-05-03T09:56:58.835Z,67.40
2019-05-03T09:59:29.840Z,67.10
2019-05-03T10:02:00.169Z,67.10
2019-05-03T10:04:29.582Z,67.80
2019-05-03T10:06:59.355Z,67.20
2019-05-03T10:09:28.963Z,66.20
2019-05-03T10:11:58.621Z,66.90
2019-05-03T10:14:28.243Z,66.50
2019-05-03T10:17:08.316Z,67.00
2019-05-03T10:19:40.384Z,66.50
2019-05-03T10:22:09.286Z,66.70
2019-05-03T10:24:38.841Z,66.00
2019-05-03T10:27:08.346Z,67.10
2019-05-03T10:29:37.842Z,66.20
2019-05-03T10:32:10.481Z,66.50
2019-05-03T10:34:41.629Z,65.80
2019-05-03T10:37:15.079Z,64.30
2019-05-03T10:39:45.508Z,65.70
2019-05-03T10:42:15.097Z,66.60
2019-05-03T10:44:45.007Z,66.70
2019-05-03T10:47:14.811Z,63.80
2019-05-03T10:49:45.778Z,64.60
2019-05-03T10:52:16.633Z,64.10
2019-05-03T10:54:46.256Z,64.70
2019-05-03T10:57:20.411Z,61.50
2019-05-03T10:59:49.842Z,62.30
2019-05-03T11:02:34.912Z,62.30
2019-05-03T11:05:06.597Z,64.20
2019-05-03T11:07:37.422Z,65.50
2019-05-03T11:10:08.254Z,63.30
2019-05-03T11:12:37.648Z,62.70
2019-05-03T11:15:08.287Z,62.00
2019-05-03T11:17:38.995Z,62.90
2019-05-03T11:20:08.548Z,62.10
2019-05-03T11:22:38.030Z,61.20
2019-05-03T11:25:07.894Z,62.80
2019-05-03T11:27:39.034Z,61.80
2019-05-03T11:30:09.583Z,61.80
2019-05-03T11:32:44.764Z,62.20
2019-05-03T11:35:18.696Z,63.20
2019-05-03T11:37:52.668Z,61.90
2019-05-03T11:40:22.339Z,60.70
2019-05-03T11:42:55.254Z,61.40
2019-05-03T11:45:24.641Z,60.70
2019-05-03T11:47:55.054Z,62.30
2019-05-03T11:50:25.374Z,63.10
2019-05-03T11:52:55.490Z,63.50
2019-05-03T11:55:26.769Z,62.90
2019-05-03T11:57:56.732Z,62.60
2019-05-03T12:00:28.155Z,61.50
2019-05-03T12:03:02.047Z,61.20
2019-05-03T12:05:32.352Z,63.10
2019-05-03T12:08:01.898Z,63.70
2019-05-03T12:10:48.358Z,61.60
2019-05-03T12:13:05.073Z,58.20
2019-05-03T12:15:35.283Z,55.90
2019-05-03T12:18:07.553Z,56.40
2019-05-03T12:20:40.311Z,59.10
2019-05-03T12:23:11.002Z,55.50
2019-05-03T12:25:41.701Z,58.10
2019-05-03T12:28:11.834Z,60.00
2019-05-03T12:30:42.036Z,60.40
2019-05-03T12:33:11.649Z,60.40
2019-05-03T12:35:41.261Z,60.80
2019-05-03T12:38:10.794Z,61.60
2019-05-03T12:40:40.289Z,62.90
2019-05-03T12:43:09.853Z,63.40
2019-05-03T12:45:39.383Z,63.50
2019-05-03T12:48:09.020Z,63.90
2019-05-03T12:50:38.990Z,61.80
2019-05-03T12:53:08.763Z,60.80
2019-05-03T12:55:38.451Z,60.70
2019-05-03T12:58:08.123Z,61.10
2019-05-03T13:00:42.098Z,61.10
2019-05-03T13:03:15.946Z,61.30
2019-05-03T13:05:45.518Z,61.40
2019-05-03T13:08:31.816Z,60.60
2019-05-03T13:11:01.320Z,60.80
2019-05-03T13:13:32.898Z,62.00
2019-05-03T13:16:04.952Z,64.30
2019-05-03T13:18:35.292Z,66.50
2019-05-03T13:21:06.073Z,66.60
2019-05-03T13:23:37.327Z,67.10
2019-05-03T13:26:06.865Z,67.10
2019-05-03T13:28:36.292Z,66.90
2019-05-03T13:31:06.211Z,66.70
2019-05-03T13:33:36.542Z,67.10
2019-05-03T13:36:06.192Z,66.70
2019-05-03T13:38:35.681Z,67.10
2019-05-03T13:41:06.816Z,66.80
2019-05-03T13:43:37.258Z,67.60
2019-05-03T13:46:08.486Z,67.40
2019-05-03T13:48:45.357Z,68.10
2019-05-03T13:51:09.385Z,67.30
2019-05-03T13:53:38.941Z,67.60
2019-05-03T13:56:08.460Z,67.50
2019-05-03T13:58:37.891Z,68.50
2019-05-03T14:01:07.481Z,67.90
2019-05-03T14:03:37.086Z,68.20
2019-05-03T14:06:08.329Z,67.50
2019-05-03T14:08:49.924Z,65.70
2019-05-03T14:11:19.496Z,66.50
2019-05-03T14:13:49.022Z,67.40
2019-05-03T14:16:18.626Z,68.10
2019-05-03T14:18:49.792Z,69.30
2019-05-03T14:21:30.178Z,68.50
2019-05-03T14:24:09.625Z,68.70
2019-05-03T14:26:40.980Z,68.90
2019-05-03T14:29:10.704Z,66.70
2019-05-03T14:31:40.238Z,66.60
2019-05-03T14:34:09.885Z,64.20
2019-05-03T14:36:39.423Z,63.00
2019-05-03T14:39:10.329Z,62.90
2019-05-03T14:41:40.293Z,61.10
2019-05-03T14:44:09.986Z,58.50
2019-05-03T14:46:39.560Z,56.60
2019-05-03T14:49:09.015Z,55.60
2019-05-03T14:51:38.693Z,55.10
2019-05-03T14:54:09.394Z,53.60
2019-05-03T14:56:45.338Z,52.60
2019-05-03T14:59:34.547Z,52.10
2019-05-03T15:02:15.534Z,51.10
2019-05-03T15:04:45.247Z,49.70
2019-05-03T15:07:15.349Z,49.20
2019-05-03T15:09:46.069Z,50.50
2019-05-03T15:12:15.615Z,49.90
2019-05-03T15:14:45.252Z,49.20
2019-05-03T15:17:14.862Z,49.20
2019-05-03T15:19:46.126Z,49.00
2019-05-03T15:22:20.933Z,48.70
2019-05-03T15:24:51.022Z,48.80
2019-05-03T15:27:20.669Z,48.50
2019-05-03T15:29:50.717Z,50.10
2019-05-03T15:32:20.261Z,48.90
2019-05-03T15:34:49.866Z,48.30
2019-05-03T15:37:20.505Z,47.40
2019-05-03T15:39:50.055Z,45.30
2019-05-03T15:42:21.011Z,44.00
2019-05-03T15:45:01.268Z,43.60
2019-05-03T15:47:38.528Z,45.80
2019-05-03T15:50:08.075Z,45.60
2019-05-03T15:52:37.499Z,43.20
2019-05-03T15:55:08.891Z,44.50
2019-05-03T15:57:38.607Z,44.70
2019-05-03T16:00:10.077Z,44.80
2019-05-03T16:02:41.470Z,45.10
2019-05-03T16:05:11.051Z,45.90
2019-05-03T16:07:40.504Z,47.50
2019-05-03T16:10:10.080Z,48.30
2019-05-03T16:12:39.709Z,49.40
2019-05-03T16:15:09.785Z,50.20
2019-05-03T16:17:39.385Z,48.70
2019-05-03T16:20:21.004Z,47.90
2019-05-03T16:22:50.409Z,47.00
2019-05-03T16:25:20.418Z,46.30
2019-05-03T16:27:51.670Z,47.70
2019-05-03T16:30:23.052Z,48.40
2019-05-03T16:32:52.548Z,49.10
2019-05-03T16:35:22.523Z,50.10
2019-05-03T16:37:54.438Z,51.10
2019-05-03T16:40:25.283Z,51.40
2019-05-03T16:42:54.960Z,52.20
2019-05-03T16:45:25.602Z,52.40
2019-05-03T16:47:55.414Z,53.30
2019-05-03T16:50:26.708Z,54.00
2019-05-03T16:52:56.250Z,52.80
2019-05-03T16:55:25.961Z,52.20
2019-05-03T16:57:56.166Z,52.50
2019-05-03T17:00:25.772Z,53.30
2019-05-03T17:02:55.384Z,53.40
2019-05-03T17:05:26.574Z,53.20
2019-05-03T17:08:15.943Z,56.20
2019-05-03T17:10:58.715Z,57.60
2019-05-03T17:13:28.292Z,57.40
2019-05-03T17:15:57.954Z,57.20
2019-05-03T17:18:27.420Z,56.10
2019-05-03T17:20:56.957Z,56.20
2019-05-03T17:23:26.386Z,56.20
2019-05-03T17:25:55.903Z,56.10
2019-05-03T17:28:25.723Z,55.60
2019-05-03T17:30:56.351Z,55.80
2019-05-03T17:33:25.964Z,56.40
2019-05-03T17:35:56.255Z,56.40
2019-05-03T17:38:25.761Z,56.80
2019-05-03T17:40:56.932Z,57.60
2019-05-03T17:43:30.816Z,57.00
2019-05-03T17:46:04.914Z,57.50
2019-05-03T17:48:35.584Z,57.50
2019-05-03T17:51:05.280Z,57.90
2019-05-03T17:53:39.531Z,58.60
2019-05-03T17:56:16.422Z,59.00
2019-05-03T17:58:55.026Z,59.60
2019-05-03T18:01:55.411Z,60.40
2019-05-03T18:04:26.616Z,60.50
2019-05-03T18:07:04.595Z,60.00
2019-05-03T18:09:35.871Z,60.30
2019-05-03T18:12:06.246Z,60.30
2019-05-03T18:14:35.796Z,60.10
2019-05-03T18:17:05.718Z,59.80
2019-05-03T18:19:35.589Z,59.80
2019-05-03T18:22:06.265Z,60.10
2019-05-03T18:37:12.078Z,60.00
2019-05-03T18:39:41.573Z,61.90
2019-05-03T18:42:12.746Z,62.00
2019-05-03T18:44:44.947Z,62.40
2019-05-03T18:47:16.237Z,62.60
2019-05-03T18:49:45.821Z,62.70
2019-05-03T18:52:15.356Z,62.70
2019-05-03T18:54:44.864Z,62.50
2019-05-03T18:57:15.606Z,63.40
2019-05-03T18:59:45.533Z,62.80
2019-05-03T19:02:15.396Z,63.10
2019-05-03T19:04:46.679Z,62.80
2019-05-03T19:07:35.644Z,62.70
2019-05-03T19:10:12.913Z,62.70
2019-05-03T19:12:46.840Z,63.20
2019-05-03T19:15:16.879Z,63.20
2019-05-03T19:17:54.721Z,63.70
2019-05-03T19:20:25.146Z,63.80
2019-05-03T19:22:54.822Z,64.20
2019-05-03T19:25:25.509Z,64.40
2019-05-03T19:27:55.144Z,64.40
2019-05-03T19:30:26.239Z,65.00
2019-05-03T19:32:55.868Z,65.00
2019-05-03T19:35:27.637Z,65.30
2019-05-03T19:37:56.639Z,65.60
2019-05-03T19:40:26.325Z,65.70
2019-05-03T19:42:55.884Z,65.70
2019-05-03T19:45:25.496Z,65.60
2019-05-03T19:47:55.328Z,65.50
2019-05-03T19:50:27.255Z,65.60
2019-05-03T19:53:14.465Z,66.70
2019-05-03T19:55:44.496Z,65.80
2019-05-03T19:58:15.333Z,66.90
2019-05-03T20:01:01.770Z,67.40
2019-05-03T20:03:35.604Z,67.60
2019-05-03T20:06:06.872Z,67.10
2019-05-03T20:08:38.060Z,67.30
2019-05-03T20:11:14.897Z,67.30
2019-05-03T20:13:45.442Z,69.40
2019-05-03T20:16:15.537Z,68.20
2019-05-03T20:18:45.828Z,67.90
2019-05-03T20:21:16.049Z,68.80
2019-05-03T20:23:47.251Z,68.80
2019-05-03T20:26:17.072Z,69.10
2019-05-03T20:28:46.639Z,69.20
2019-05-03T20:31:16.283Z,69.30
2019-05-03T20:33:46.624Z,69.60
2019-05-03T20:36:16.349Z,69.60
2019-05-03T20:38:46.422Z,69.50
2019-05-03T20:41:15.894Z,70.00
2019-05-03T20:43:47.569Z,69.90
2019-05-03T20:46:18.810Z,69.80
2019-05-03T20:48:49.933Z,69.60
2019-05-03T20:51:19.442Z,69.60
2019-05-03T20:53:49.126Z,69.50
2019-05-03T20:56:18.545Z,69.30
2019-05-03T20:58:48.105Z,69.50
2019-05-03T21:01:17.714Z,69.30
2019-05-03T21:03:47.387Z,69.30
2019-05-03T21:06:16.837Z,69.20
2019-05-03T21:08:52.915Z,69.10
2019-05-03T21:11:17.566Z,69.10
2019-05-03T21:13:47.113Z,68.80
2019-05-03T21:16:21.017Z,68.60
2019-05-03T21:18:54.869Z,69.10
2019-05-03T21:21:29.044Z,68.50
2019-05-03T21:24:04.573Z,68.30
2019-05-03T21:26:34.615Z,68.40
2019-05-03T21:29:04.781Z,67.80
2019-05-03T21:31:35.196Z,67.80
2019-05-03T21:34:05.984Z,67.90
2019-05-03T21:36:35.599Z,67.90
2019-05-03T21:39:07.322Z,68.10
2019-05-03T21:41:38.123Z,68.10
2019-05-03T21:44:07.837Z,67.90
2019-05-03T21:46:41.672Z,67.70
2019-05-03T21:49:14.788Z,67.80
2019-05-03T21:51:45.013Z,67.20
2019-05-03T21:54:15.260Z,67.00
2019-05-03T21:56:45.284Z,67.00
2019-05-03T21:59:14.823Z,66.70
2019-05-03T22:01:46.236Z,66.80
2019-05-03T22:04:15.859Z,67.10
2019-05-03T22:06:45.449Z,66.80
2019-05-03T22:09:15.072Z,67.50
2019-05-03T22:11:44.869Z,67.70
2019-05-03T22:14:16.208Z,67.40
2019-05-03T22:16:50.200Z,67.60
2019-05-03T22:19:19.714Z,67.80
2019-05-03T22:21:52.109Z,67.60
2019-05-03T22:24:26.124Z,67.60
2019-05-03T22:26:59.929Z,67.30
2019-05-03T22:29:29.439Z,67.70
2019-05-03T22:32:00.051Z,68.20
2019-05-03T22:34:29.648Z,68.10
2019-05-03T22:36:59.135Z,68.30
2019-05-03T22:39:28.703Z,68.40
2019-05-03T22:41:58.234Z,68.30
2019-05-03T22:44:27.742Z,68.40
2019-05-03T22:46:57.916Z,68.80
2019-05-03T22:49:46.846Z,68.90
2019-05-03T22:52:16.542Z,69.20
2019-05-03T22:54:46.461Z,69.60
2019-05-03T22:57:15.931Z,70.10
2019-05-03T22:59:45.506Z,70.30
2019-05-03T23:02:17.110Z,70.70
2019-05-03T23:04:46.419Z,70.80
2019-05-03T23:07:15.941Z,70.60
2019-05-03T23:09:45.519Z,70.60
2019-05-03T23:12:15.077Z,70.80
2019-05-03T23:14:44.798Z,71.10
2019-05-03T23:17:14.950Z,71.20
2019-05-03T23:19:46.510Z,71.10
2019-05-03T23:22:17.591Z,71.20
2019-05-03T23:24:47.134Z,71.50
2019-05-03T23:27:16.966Z,71.40
2019-05-03T23:29:46.383Z,71.70
2019-05-03T23:32:15.754Z,71.80
2019-05-03T23:34:46.404Z,71.80
2019-05-03T23:37:16.160Z,71.60
2019-05-03T23:39:47.186Z,71.20
2019-05-03T23:42:16.903Z,72.10
2019-05-03T23:44:46.268Z,71.80
2019-05-03T23:47:34.514Z,72.00
2019-05-03T23:50:10.343Z,71.80
2019-05-03T23:52:39.866Z,71.80
2019-05-03T23:55:11.736Z,71.80
2019-05-03T23:57:41.392Z,71.70
